Time;durP1;ratioP1;P1;durP2;ratioP2;P2;SDS_P1;SDS_P2;PMS_P1;PMS_P2;Temp;Humidity;BMP_temperature;BMP_pressure;BME280_temperature;BME280_humidity;BME280_pressure;Samples;Min_cycle;Max_cycle;Signal;HPM_P1;HPM_P2
2022/04/27 00:01:58;;;;;;;1.65;0.50;;;11.90;99.90;;;;;;4900882;29;20149;-81
2022/04/27 00:04:27;;;;;;;0.30;0.30;;;11.90;99.90;;;;;;4900708;29;20555;-74
2022/04/27 00:06:58;;;;;;;0.03;0.03;;;11.90;99.90;;;;;;4901000;29;20444;-74
2022/04/27 00:09:24;;;;;;;0.38;0.25;;;11.90;99.90;;;;;;4899798;29;20033;-80
2022/04/27 00:11:51;;;;;;;0.10;0.10;;;11.80;99.90;;;;;;4900786;29;20088;-74
2022/04/27 00:14:19;;;;;;;2.88;1.13;;;11.80;99.90;;;;;;4900828;29;20024;-80
2022/04/27 00:16:45;;;;;;;1.10;0.68;;;11.80;99.90;;;;;;4900811;29;20040;-74
2022/04/27 00:19:11;;;;;;;1.25;0.65;;;11.80;99.90;;;;;;4883301;29;20035;-74
2022/04/27 00:21:38;;;;;;;0.35;0.35;;;11.80;99.90;;;;;;4909932;29;20049;-74
2022/04/27 00:24:06;;;;;;;3.50;0.35;;;11.80;99.90;;;;;;4898849;29;20045;-74
2022/04/27 00:26:34;;;;;;;0.10;0.10;;;11.80;99.90;;;;;;4900349;29;20198;-79
2022/04/27 00:29:00;;;;;;;0.15;0.15;;;11.80;99.90;;;;;;4899221;29;20029;-80
2022/04/27 00:31:31;;;;;;;0.98;0.20;;;11.80;99.90;;;;;;4899344;29;20457;-80
2022/04/27 00:34:00;;;;;;;0.98;0.25;;;11.80;99.90;;;;;;4899078;29;20061;-74
2022/04/27 00:36:27;;;;;;;0.10;0.10;;;11.80;99.90;;;;;;4899191;29;20052;-74
2022/04/27 00:38:53;;;;;;;0.40;0.40;;;11.80;99.90;;;;;;4929428;29;20032;-80
2022/04/27 00:41:19;;;;;;;5.18;1.00;;;11.80;99.90;;;;;;4937346;29;20042;-80
2022/04/27 00:43:45;;;;;;;0.75;0.40;;;11.80;99.90;;;;;;4936828;29;20529;-80
2022/04/27 00:46:13;;;;;;;0.30;0.20;;;11.70;99.90;;;;;;4930269;29;20028;-74
2022/04/27 00:48:40;;;;;;;0.20;0.20;;;11.70;99.90;;;;;;4919013;29;20048;-79
2022/04/27 00:51:08;;;;;;;0.60;0.60;;;11.70;99.90;;;;;;4917448;29;20032;-74
2022/04/27 00:53:37;;;;;;;0.40;0.10;;;11.60;99.90;;;;;;4916920;29;20114;-79
2022/04/27 00:56:03;;;;;;;2.75;1.45;;;11.60;99.90;;;;;;4899079;29;20032;-74
2022/04/27 00:58:31;;;;;;;4.38;0.20;;;11.60;99.90;;;;;;4898367;29;20036;-79
2022/04/27 01:00:57;;;;;;;0.00;0.00;;;11.60;99.90;;;;;;4898953;29;20037;-74
2022/04/27 01:03:23;;;;;;;0.20;0.20;;;11.60;99.90;;;;;;4882980;29;20115;-74
2022/04/27 01:05:49;;;;;;;0.80;0.20;;;11.50;99.90;;;;;;4899746;29;20071;-80
2022/04/27 01:08:17;;;;;;;0.00;0.00;;;11.50;99.90;;;;;;4882845;29;20045;-80
2022/04/27 01:10:46;;;;;;;0.15;0.15;;;11.50;99.90;;;;;;4899757;29;20400;-75
2022/04/27 01:13:16;;;;;;;5.15;0.43;;;11.50;99.90;;;;;;4899281;29;20032;-75
2022/04/27 01:15:42;;;;;;;0.05;0.05;;;11.50;99.90;;;;;;4899860;29;20123;-74
2022/04/27 01:18:09;;;;;;;0.20;0.20;;;11.50;99.90;;;;;;4899433;29;20524;-80
2022/04/27 01:20:44;;;;;;;0.00;0.00;;;11.50;99.90;;;;;;4922934;29;20032;-81
2022/04/27 01:23:12;;;;;;;3.70;0.30;;;11.50;99.90;;;;;;4917961;29;20024;-79
2022/04/27 01:26:08;;;;;;;0.17;0.17;;;11.40;99.90;;;;;;4916883;29;20138;-74
2022/04/27 01:28:37;;;;;;;3.20;0.60;;;11.50;99.90;;;;;;4916932;29;20119;-79
2022/04/27 01:31:07;;;;;;;5.88;1.00;;;11.40;99.90;;;;;;4918527;29;20032;-80
2022/04/27 01:33:34;;;;;;;0.25;0.20;;;11.40;99.90;;;;;;4917781;29;20029;-79
2022/04/27 01:36:05;;;;;;;0.38;0.38;;;11.40;99.90;;;;;;4918040;29;20511;-80
2022/04/27 01:38:39;;;;;;;3.42;0.77;;;11.40;99.90;;;;;;4930254;29;20024;-74
2022/04/27 01:41:06;;;;;;;3.90;0.90;;;11.30;99.90;;;;;;4936528;29;20032;-74
2022/04/27 01:43:34;;;;;;;0.20;0.20;;;11.30;99.90;;;;;;4937067;29;20369;-79
2022/04/27 01:46:01;;;;;;;0.47;0.47;;;11.30;99.90;;;;;;4935405;29;20099;-79
2022/04/27 01:48:32;;;;;;;0.20;0.20;;;11.30;99.90;;;;;;4916297;29;20032;-74
2022/04/27 01:50:58;;;;;;;0.13;0.13;;;11.30;99.90;;;;;;4917923;29;20080;-79
2022/04/27 01:56:10;;;;;;;20.88;1.15;;;11.30;99.90;;;;;;4898808;29;20051;-80
2022/04/27 01:58:37;;;;;;;0.77;0.77;;;11.30;99.90;;;;;;4897459;29;20548;-80
2022/04/27 02:01:03;;;;;;;0.28;0.28;;;11.30;99.90;;;;;;4897793;29;20092;-74
2022/04/27 02:03:29;;;;;;;0.50;0.50;;;11.20;99.90;;;;;;4898702;29;20025;-74
2022/04/27 02:05:56;;;;;;;0.15;0.15;;;11.20;99.90;;;;;;4898827;29;20032;-80
2022/04/27 02:08:22;;;;;;;0.32;0.17;;;11.20;99.90;;;;;;4896908;29;20071;-75
2022/04/27 02:10:48;;;;;;;0.00;0.00;;;11.20;99.90;;;;;;4897186;29;20028;-79
2022/04/27 02:13:14;;;;;;;0.38;0.38;;;11.20;99.90;;;;;;4898606;29;20025;-80
2022/04/27 02:15:41;;;;;;;0.77;0.77;;;11.20;99.90;;;;;;4897549;29;20119;-75
2022/04/27 02:18:08;;;;;;;1.17;0.70;;;11.20;99.90;;;;;;4898653;29;20035;-75
2022/04/27 02:20:34;;;;;;;6.22;0.73;;;11.20;99.90;;;;;;4898510;29;20035;-75
2022/04/27 02:23:00;;;;;;;1.23;0.30;;;11.20;99.90;;;;;;4898532;29;20404;-80
2022/04/27 02:25:26;;;;;;;2.00;1.75;;;11.20;99.90;;;;;;4896885;29;20055;-80
2022/04/27 02:27:53;;;;;;;1.90;0.32;;;11.20;99.90;;;;;;4897459;29;20029;-74
2022/04/27 02:30:19;;;;;;;1.15;0.50;;;11.20;99.90;;;;;;4898178;29;20404;-79
2022/04/27 02:32:46;;;;;;;0.30;0.10;;;11.20;99.90;;;;;;4898347;29;20029;-74
2022/04/27 02:35:13;;;;;;;0.52;0.50;;;11.20;99.90;;;;;;4898222;29;20076;-74
2022/04/27 02:37:40;;;;;;;0.88;0.88;;;11.20;99.90;;;;;;4909355;29;20027;-78
2022/04/27 02:40:08;;;;;;;0.20;0.20;;;11.20;99.90;;;;;;4936123;29;20036;-74
2022/04/27 02:42:34;;;;;;;1.10;0.65;;;11.20;99.90;;;;;;4935493;29;20028;-74
2022/04/27 02:45:00;;;;;;;7.20;0.85;;;11.20;99.90;;;;;;4935487;29;20399;-80
2022/04/27 02:47:27;;;;;;;2.20;0.52;;;11.20;99.90;;;;;;4922976;29;20024;-74
2022/04/27 02:52:38;;;;;;;2.65;0.30;;;11.10;99.90;;;;;;4917117;29;20036;-74
2022/04/27 02:55:04;;;;;;;0.10;0.10;;;11.10;99.90;;;;;;4903355;29;20040;-79
2022/04/27 02:57:30;;;;;;;1.10;0.45;;;11.10;99.90;;;;;;4897965;29;20203;-74
2022/04/27 03:00:00;;;;;;;1.23;0.90;;;11.10;99.90;;;;;;4896797;29;20089;-80
2022/04/27 03:02:26;;;;;;;0.77;0.52;;;11.10;99.90;;;;;;4898116;29;20031;-74
2022/04/27 03:04:52;;;;;;;2.58;1.02;;;11.10;99.90;;;;;;4897651;29;20028;-79
2022/04/27 03:07:19;;;;;;;0.32;0.30;;;11.00;99.90;;;;;;4897830;29;20056;-74
2022/04/27 03:09:44;;;;;;;0.93;0.82;;;11.00;99.90;;;;;;4898174;29;20037;-79
2022/04/27 03:12:10;;;;;;;0.60;0.57;;;10.90;99.90;;;;;;4897643;29;20029;-74
2022/04/27 03:14:35;;;;;;;1.75;1.05;;;10.90;99.90;;;;;;4897443;29;20111;-79
2022/04/27 03:17:01;;;;;;;3.25;0.85;;;10.80;99.90;;;;;;4897854;29;20033;-79
2022/04/27 03:19:27;;;;;;;0.20;0.20;;;10.70;99.90;;;;;;4896603;29;20415;-74
2022/04/27 03:21:53;;;;;;;3.95;1.38;;;10.70;99.90;;;;;;4898075;29;20113;-74
2022/04/27 03:24:18;;;;;;;1.88;1.23;;;10.60;99.90;;;;;;4897548;29;20028;-75
2022/04/27 03:26:44;;;;;;;1.33;1.27;;;10.50;99.90;;;;;;4897645;29;20049;-74
2022/04/27 03:29:10;;;;;;;0.28;0.28;;;10.40;99.90;;;;;;4897510;29;20496;-75
2022/04/27 03:31:35;;;;;;;1.35;0.90;;;10.30;99.90;;;;;;4897743;29;20025;-75
2022/04/27 03:34:01;;;;;;;0.45;0.45;;;10.30;99.90;;;;;;4897365;29;20027;-74
2022/04/27 03:36:27;;;;;;;1.20;0.80;;;10.20;99.90;;;;;;4897329;29;20035;-74
2022/04/27 03:38:53;;;;;;;0.90;0.88;;;10.20;99.90;;;;;;4927586;29;20107;-74
2022/04/27 03:41:22;;;;;;;0.20;0.20;;;10.20;99.90;;;;;;4935443;29;20027;-79
2022/04/27 03:43:49;;;;;;;0.20;0.20;;;10.20;99.90;;;;;;4934963;29;20402;-79
2022/04/27 03:46:15;;;;;;;0.20;0.20;;;10.20;99.90;;;;;;4927196;29;20163;-74
2022/04/27 03:48:41;;;;;;;1.13;0.60;;;10.10;99.90;;;;;;4897425;29;20138;-79
2022/04/27 03:51:07;;;;;;;1.23;0.88;;;10.10;99.90;;;;;;4897408;29;20029;-75
2022/04/27 03:53:33;;;;;;;0.10;0.10;;;10.10;99.90;;;;;;4899957;29;20032;-78
2022/04/27 03:55:59;;;;;;;7.22;0.75;;;10.20;99.90;;;;;;4897351;29;20040;-74
2022/04/27 03:58:24;;;;;;;0.35;0.28;;;10.10;99.90;;;;;;4895986;29;20052;-74
2022/04/27 04:00:50;;;;;;;1.08;0.40;;;10.10;99.90;;;;;;4896214;29;20127;-74
2022/04/27 04:03:16;;;;;;;0.03;0.03;;;10.10;99.90;;;;;;4897498;29;20037;-74
2022/04/27 04:05:42;;;;;;;1.25;0.75;;;10.10;99.90;;;;;;4897476;29;20503;-80
2022/04/27 04:08:08;;;;;;;2.53;0.30;;;10.10;99.90;;;;;;4897180;29;20471;-74
2022/04/27 04:10:34;;;;;;;2.45;0.50;;;10.10;99.90;;;;;;4898394;29;20033;-79
2022/04/27 04:12:59;;;;;;;3.85;0.73;;;10.10;99.90;;;;;;4900526;29;20108;-74
2022/04/27 04:15:25;;;;;;;0.47;0.17;;;10.10;99.90;;;;;;4899056;29;20123;-75
2022/04/27 04:17:51;;;;;;;0.20;0.20;;;10.10;99.90;;;;;;4900954;29;20021;-74
2022/04/27 04:20:18;;;;;;;2.00;0.65;;;10.00;99.90;;;;;;4900335;29;20401;-79
2022/04/27 04:22:45;;;;;;;0.00;0.00;;;10.00;99.90;;;;;;4899475;29;20069;-74
2022/04/27 04:30:40;;;;;;;1.27;1.00;;;10.00;99.90;;;;;;4900228;29;20559;-75
2022/04/27 04:33:07;;;;;;;0.00;0.00;;;10.00;99.90;;;;;;4900755;29;20024;-74
2022/04/27 04:35:36;;;;;;;0.13;0.13;;;10.00;99.90;;;;;;4900411;29;20040;-74
2022/04/27 04:38:04;;;;;;;0.25;0.25;;;10.00;99.90;;;;;;4917487;29;20486;-79
2022/04/27 04:40:30;;;;;;;0.20;0.20;;;10.00;99.90;;;;;;4938142;29;20083;-80
2022/04/27 04:42:56;;;;;;;0.40;0.40;;;9.90;99.90;;;;;;4932775;29;20114;-74
2022/04/27 04:45:23;;;;;;;0.22;0.17;;;9.90;99.90;;;;;;4938066;29;20466;-79
2022/04/27 04:47:49;;;;;;;0.35;0.30;;;9.90;99.90;;;;;;4921752;29;20021;-75
2022/04/27 04:50:15;;;;;;;2.05;0.73;;;9.90;99.90;;;;;;4917445;29;20083;-79
2022/04/27 04:52:41;;;;;;;0.05;0.05;;;9.90;99.90;;;;;;4925621;29;20557;-75
2022/04/27 04:55:07;;;;;;;0.70;0.65;;;9.90;99.90;;;;;;4910207;29;20036;-74
2022/04/27 04:57:33;;;;;;;0.20;0.20;;;9.90;99.90;;;;;;4899946;29;20032;-74
2022/04/27 04:59:58;;;;;;;0.28;0.28;;;9.90;99.90;;;;;;4899984;29;20036;-80
2022/04/27 05:02:24;;;;;;;4.50;0.85;;;9.90;99.90;;;;;;4907620;29;20030;-74
2022/04/27 05:04:51;;;;;;;0.77;0.13;;;9.80;99.90;;;;;;4936600;29;20035;-80
2022/04/27 05:07:18;;;;;;;0.15;0.15;;;9.90;99.90;;;;;;4937800;29;20099;-75
2022/04/27 05:09:44;;;;;;;4.78;0.57;;;9.90;99.90;;;;;;4943562;29;20487;-77
2022/04/27 05:12:10;;;;;;;1.67;1.10;;;9.90;99.90;;;;;;4939808;29;20034;-79
2022/04/27 05:14:36;;;;;;;0.35;0.20;;;9.90;99.90;;;;;;4937681;29;20032;-80
2022/04/27 05:17:02;;;;;;;1.55;0.93;;;9.90;99.90;;;;;;4937487;29;20036;-79
2022/04/27 05:19:27;;;;;;;0.57;0.57;;;9.90;99.90;;;;;;4937097;29;20043;-75
2022/04/27 05:21:53;;;;;;;0.22;0.22;;;9.90;99.90;;;;;;4936773;29;20031;-75
2022/04/27 05:24:19;;;;;;;3.72;0.98;;;9.90;99.90;;;;;;4937175;29;20471;-75
2022/04/27 05:26:44;;;;;;;2.08;0.50;;;9.90;99.90;;;;;;4937195;29;20047;-79
2022/04/27 05:31:54;;;;;;;0.10;0.10;;;9.90;99.90;;;;;;4937319;29;20066;-74
2022/04/27 05:34:23;;;;;;;1.15;0.40;;;9.90;99.90;;;;;;4936663;29;20446;-74
2022/04/27 05:36:50;;;;;;;0.73;0.73;;;9.90;99.90;;;;;;4922806;29;20091;-79
2022/04/27 05:39:18;;;;;;;1.48;0.82;;;9.90;99.90;;;;;;4934034;29;20035;-80
2022/04/27 05:41:44;;;;;;;1.17;0.28;;;10.00;99.90;;;;;;4936793;29;20024;-75
2022/04/27 05:44:12;;;;;;;1.10;0.93;;;10.00;99.90;;;;;;4899529;29;20024;-74
2022/04/27 05:46:38;;;;;;;1.08;0.98;;;10.10;99.90;;;;;;4904436;29;20055;-75
2022/04/27 05:49:04;;;;;;;0.63;0.63;;;10.10;99.90;;;;;;4913958;29;20028;-74
2022/04/27 05:51:30;;;;;;;0.80;0.40;;;10.10;99.90;;;;;;4930589;29;20103;-79
2022/04/27 05:53:56;;;;;;;2.50;0.90;;;10.20;99.90;;;;;;4927246;29;20107;-74
2022/04/27 05:56:23;;;;;;;1.55;0.85;;;10.20;99.90;;;;;;4898419;29;20096;-75
2022/04/27 05:58:49;;;;;;;1.17;0.28;;;10.30;99.90;;;;;;4914964;29;20059;-74
2022/04/27 06:01:15;;;;;;;0.95;0.93;;;10.30;99.90;;;;;;4936422;29;20047;-80
2022/04/27 06:03:41;;;;;;;0.32;0.20;;;10.40;99.90;;;;;;4935046;29;20871;-75
2022/04/27 06:06:07;;;;;;;0.25;0.25;;;10.40;99.90;;;;;;4935989;29;20059;-79
2022/04/27 06:08:33;;;;;;;1.20;0.10;;;10.40;99.90;;;;;;4935964;29;20099;-75
2022/04/27 06:10:59;;;;;;;0.15;0.15;;;10.50;99.90;;;;;;4935923;29;20098;-74
2022/04/27 06:13:24;;;;;;;3.00;1.38;;;10.60;99.90;;;;;;4914451;29;20063;-75
2022/04/27 06:15:50;;;;;;;1.23;0.75;;;10.60;99.90;;;;;;4916881;29;20036;-74
2022/04/27 06:18:16;;;;;;;0.57;0.57;;;10.70;99.90;;;;;;4916588;29;20032;-79
2022/04/27 06:20:42;;;;;;;1.25;0.80;;;10.70;99.90;;;;;;4916399;29;20387;-76
2022/04/27 06:23:08;;;;;;;0.17;0.17;;;10.80;99.90;;;;;;4915177;29;20032;-75
2022/04/27 06:25:35;;;;;;;0.10;0.10;;;10.80;99.90;;;;;;4925470;29;20406;-77
2022/04/27 06:28:00;;;;;;;4.22;1.33;;;10.90;99.90;;;;;;4924275;29;20081;-72
2022/04/27 06:30:26;;;;;;;0.13;0.13;;;11.00;99.90;;;;;;4933171;29;20478;-73
2022/04/27 06:32:52;;;;;;;1.55;0.47;;;11.00;99.90;;;;;;4933601;29;20122;-74
2022/04/27 06:35:18;;;;;;;18.48;1.08;;;11.00;99.90;;;;;;4930767;29;20142;-74
2022/04/27 06:37:43;;;;;;;0.52;0.40;;;11.10;99.90;;;;;;4917448;29;20027;-74
2022/04/27 06:40:10;;;;;;;0.20;0.10;;;11.20;99.90;;;;;;4932247;29;20027;-74
2022/04/27 06:42:36;;;;;;;0.13;0.08;;;11.40;99.90;;;;;;4918859;29;20036;-74
2022/04/27 06:45:02;;;;;;;0.20;0.20;;;11.40;99.90;;;;;;4901425;29;20023;-74
2022/04/27 06:47:28;;;;;;;3.40;1.27;;;11.50;99.90;;;;;;4914303;29;20021;-74
2022/04/27 06:49:54;;;;;;;0.40;0.40;;;11.60;99.90;;;;;;4929870;29;20546;-74
2022/04/27 06:52:20;;;;;;;0.30;0.30;;;11.70;99.90;;;;;;4933323;29;20529;-74
2022/04/27 06:54:45;;;;;;;3.53;0.55;;;11.80;99.90;;;;;;4913643;29;20037;-74
2022/04/27 06:57:11;;;;;;;2.08;1.40;;;11.80;99.90;;;;;;4925047;29;20086;-74
2022/04/27 06:59:37;;;;;;;1.05;0.47;;;12.00;99.90;;;;;;4917514;29;20486;-74
2022/04/27 07:02:04;;;;;;;1.40;0.47;;;12.10;99.90;;;;;;4911528;29;20045;-74
2022/04/27 07:04:34;;;;;;;2.00;0.63;;;12.20;99.90;;;;;;4923560;29;20019;-74
2022/04/27 07:07:00;;;;;;;3.10;1.17;;;12.30;99.90;;;;;;4900567;29;20418;-77
2022/04/27 07:09:26;;;;;;;2.65;1.42;;;12.40;99.90;;;;;;4922425;29;20479;-73
2022/04/27 07:11:52;;;;;;;0.17;0.17;;;12.40;99.90;;;;;;4909785;29;20566;-75
2022/04/27 07:14:19;;;;;;;0.70;0.52;;;12.40;99.90;;;;;;4893895;29;20516;-73
2022/04/27 07:16:45;;;;;;;1.38;0.30;;;12.50;99.90;;;;;;4909353;29;20037;-74
2022/04/27 07:19:12;;;;;;;4.18;1.52;;;12.60;99.90;;;;;;4901363;29;20031;-74
2022/04/27 07:21:38;;;;;;;3.80;0.95;;;12.80;99.90;;;;;;4900265;29;20107;-74
2022/04/27 07:24:05;;;;;;;4.47;1.02;;;12.90;99.90;;;;;;4923296;29;20028;-74
2022/04/27 07:26:31;;;;;;;0.38;0.28;;;13.10;99.90;;;;;;4924157;29;20665;-74
2022/04/27 07:28:56;;;;;;;2.53;0.80;;;13.10;99.90;;;;;;4894049;29;20412;-74
2022/04/27 07:31:22;;;;;;;0.30;0.22;;;13.10;99.90;;;;;;4911918;29;20029;-74
2022/04/27 07:33:48;;;;;;;1.52;1.05;;;13.10;99.90;;;;;;4910251;29;20123;-74
2022/04/27 07:36:14;;;;;;;0.28;0.28;;;13.20;99.90;;;;;;4907567;29;20036;-77
2022/04/27 07:38:39;;;;;;;0.95;0.70;;;13.30;99.90;;;;;;4909665;29;20551;-73
2022/04/27 07:41:06;;;;;;;6.72;0.30;;;13.60;99.90;;;;;;4918594;29;20072;-74
2022/04/27 07:43:32;;;;;;;5.63;0.60;;;13.80;99.90;;;;;;4908172;29;20040;-73
2022/04/27 07:45:58;;;;;;;6.05;1.45;;;14.00;99.90;;;;;;4911121;29;20496;-73
2022/04/27 07:48:24;;;;;;;2.97;1.55;;;14.40;99.90;;;;;;4915969;29;20024;-76
2022/04/27 07:50:49;;;;;;;0.82;0.50;;;14.90;99.90;;;;;;4921674;29;20118;-76
2022/04/27 07:53:15;;;;;;;1.42;0.80;;;15.20;99.90;;;;;;4916655;29;20036;-72
2022/04/27 07:55:40;;;;;;;0.85;0.35;;;15.80;99.90;;;;;;4919396;29;20035;-73
2022/04/27 07:58:06;;;;;;;5.88;0.60;;;16.20;99.90;;;;;;4914149;29;20032;-73
2022/04/27 08:00:32;;;;;;;4.85;1.15;;;15.90;99.90;;;;;;4916006;29;20064;-76
2022/04/27 08:02:58;;;;;;;1.27;0.63;;;15.70;99.90;;;;;;4916461;29;20190;-77
2022/04/27 08:05:25;;;;;;;7.30;1.92;;;15.90;99.90;;;;;;4914816;29;20028;-75
2022/04/27 08:07:50;;;;;;;4.97;0.75;;;16.20;99.90;;;;;;4918044;29;20051;-77
2022/04/27 08:10:18;;;;;;;2.70;0.93;;;16.10;99.90;;;;;;4922160;29;20032;-74
2022/04/27 08:12:47;;;;;;;1.90;0.77;;;16.00;99.90;;;;;;4911648;29;20057;-75
2022/04/27 08:15:17;;;;;;;1.40;0.60;;;15.80;99.90;;;;;;4906912;29;20022;-75
2022/04/27 08:17:59;;;;;;;8.95;0.80;;;15.60;99.90;;;;;;4924650;29;20040;-77
2022/04/27 08:23:11;;;;;;;3.03;0.52;;;15.30;99.90;;;;;;4915084;29;20123;-75
2022/04/27 08:25:37;;;;;;;3.45;1.58;;;16.80;99.20;;;;;;4903914;29;20064;-76
2022/04/27 08:28:06;;;;;;;1.73;1.13;;;17.70;98.40;;;;;;4899275;29;20044;-77
2022/04/27 08:30:36;;;;;;;5.47;1.40;;;17.90;97.10;;;;;;4909169;29;20043;-77
2022/04/27 08:33:03;;;;;;;1.33;0.80;;;17.90;97.40;;;;;;4906991;29;20035;-76
2022/04/27 08:35:29;;;;;;;3.85;1.10;;;17.90;97.40;;;;;;4911159;29;20060;-75
2022/04/27 08:37:54;;;;;;;2.65;1.48;;;18.90;96.60;;;;;;4908984;29;20043;-76
2022/04/27 08:40:21;;;;;;;1.90;1.23;;;19.10;95.50;;;;;;4906572;29;20570;-77
2022/04/27 08:42:49;;;;;;;2.30;1.23;;;19.60;95.50;;;;;;4906159;29;20047;-76
2022/04/27 08:45:16;;;;;;;1.90;1.23;;;20.70;94.50;;;;;;4907042;29;20028;-76
2022/04/27 08:47:43;;;;;;;2.25;1.02;;;21.40;93.70;;;;;;4906345;29;20039;-75
2022/04/27 08:50:20;;;;;;;5.05;2.13;;;22.20;92.40;;;;;;4916923;29;20068;-74
2022/04/27 08:52:50;;;;;;;1.65;1.33;;;21.00;93.40;;;;;;4923596;29;20654;-75
2022/04/27 08:55:19;;;;;;;1.23;0.90;;;22.10;92.20;;;;;;4905747;29;20648;-75
2022/04/27 08:57:45;;;;;;;3.50;1.55;;;24.00;91.00;;;;;;4914012;29;20095;-75
2022/04/27 09:00:16;;;;;;;2.83;1.75;;;25.40;89.30;;;;;;4921670;29;20043;-74
2022/04/27 09:02:42;;;;;;;3.35;1.92;;;25.70;88.20;;;;;;4901557;29;20103;-74
2022/04/27 09:05:26;;;;;;;3.97;1.83;;;26.30;86.30;;;;;;4921647;29;20027;-75
2022/04/27 09:07:57;;;;;;;5.43;1.85;;;26.80;84.80;;;;;;4907330;29;20511;-75
2022/04/27 09:10:25;;;;;;;12.10;1.88;;;24.80;86.60;;;;;;4927027;29;20523;-76
2022/04/27 09:12:57;;;;;;;2.13;1.75;;;24.90;86.30;;;;;;4920291;29;20039;-74
2022/04/27 09:15:23;;;;;;;;;;;25.70;84.90;;;;;;4921360;29;20047;-74
2022/04/27 09:20:47;;;;;;;2.20;1.38;;;26.00;83.70;;;;;;4923497;29;20042;-76
2022/04/27 09:23:21;;;;;;;1.27;1.00;;;26.10;83.50;;;;;;4920988;29;20043;-75
2022/04/27 09:25:47;;;;;;;4.43;1.55;;;26.00;84.10;;;;;;4908990;29;20087;-75
2022/04/27 09:28:13;;;;;;;4.97;1.10;;;26.20;84.20;;;;;;4927671;29;20460;-75
2022/04/27 09:30:38;;;;;;;2.70;1.75;;;26.00;84.10;;;;;;4934031;29;20024;-74
2022/04/27 09:33:04;;;;;;;2.50;1.38;;;25.40;84.20;;;;;;4932697;29;20057;-76
2022/04/27 09:35:34;;;;;;;3.55;1.58;;;24.90;85.60;;;;;;4900572;29;20029;-75
2022/04/27 09:38:17;;;;;;;2.50;1.50;;;23.70;88.00;;;;;;4911273;29;20061;-76
2022/04/27 09:40:47;;;;;;;4.65;1.52;;;23.50;89.20;;;;;;4899090;29;20029;-75
2022/04/27 09:43:14;;;;;;;2.45;1.13;;;23.50;88.20;;;;;;4908240;29;20032;-75
2022/04/27 09:45:44;;;;;;;2.55;1.38;;;22.90;89.70;;;;;;4915147;29;20090;-76
2022/04/27 09:48:19;;;;;;;3.33;1.80;;;23.80;89.70;;;;;;4896721;29;20024;-77
2022/04/27 09:50:50;;;;;;;1.90;1.60;;;25.10;87.80;;;;;;4900954;29;20020;-75
2022/04/27 09:53:17;;;;;;;2.03;1.25;;;25.70;86.60;;;;;;4915910;29;20063;-76
2022/04/27 09:55:49;;;;;;;4.57;1.30;;;25.10;86.90;;;;;;4897946;29;20021;-75
2022/04/27 09:58:16;;;;;;;2.70;1.30;;;24.80;88.00;;;;;;4904482;29;20494;-76
2022/04/27 10:00:43;;;;;;;1.55;1.15;;;25.60;86.20;;;;;;4933553;29;20063;-76
2022/04/27 10:03:16;;;;;;;1.58;1.27;;;27.00;84.80;;;;;;4933838;29;20059;-76
2022/04/27 10:05:43;;;;;;;1.52;1.38;;;27.80;83.30;;;;;;4928814;29;20031;-75
2022/04/27 10:08:09;;;;;;;1.77;1.27;;;28.20;82.30;;;;;;4895853;29;20405;-77
2022/04/27 10:10:38;;;;;;;2.47;1.35;;;28.10;81.60;;;;;;4902910;29;20559;-77
2022/04/27 10:13:08;;;;;;;1.73;1.25;;;27.90;81.40;;;;;;4902270;29;20459;-77
2022/04/27 10:15:34;;;;;;;2.60;1.40;;;28.40;81.10;;;;;;4921640;29;20454;-75
2022/04/27 10:18:00;;;;;;;2.30;1.10;;;27.70;81.30;;;;;;4931930;29;20032;-75
2022/04/27 10:20:27;;;;;;;2.60;1.35;;;25.80;84.70;;;;;;4895256;29;20035;-75
2022/04/27 10:23:12;;;;;;;2.13;1.33;;;25.40;85.50;;;;;;4896000;29;20127;-74
2022/04/27 10:25:38;;;;;;;1.27;1.00;;;26.30;84.40;;;;;;4906376;29;20071;-76
2022/04/27 10:28:20;;;;;;;4.05;1.35;;;26.90;83.80;;;;;;4919570;29;20032;-76
2022/04/27 10:30:46;;;;;;;3.15;1.23;;;27.60;84.40;;;;;;4931524;29;20035;-75
2022/04/27 10:33:31;;;;;;;2.80;1.20;;;26.90;82.70;;;;;;4927480;29;20044;-75
2022/04/27 10:36:36;;;;;;;2.45;0.90;;;25.10;85.50;;;;;;4905062;29;20028;-74
2022/04/27 10:39:11;;;;;;;1.20;0.63;;;23.30;88.90;;;;;;4905075;29;20083;-77
2022/04/27 10:41:39;;;;;;;1.33;0.90;;;22.90;90.60;;;;;;4910538;29;20107;-77
2022/04/27 10:44:05;;;;;;;1.35;1.00;;;24.00;90.10;;;;;;4906527;29;20060;-75
2022/04/27 10:46:34;;;;;;;1.92;1.10;;;25.20;87.90;;;;;;4905885;29;20032;-75
2022/04/27 10:49:00;;;;;;;2.15;1.52;;;25.50;87.30;;;;;;4922365;29;20443;-77
2022/04/27 10:51:25;;;;;;;1.30;1.20;;;25.90;86.40;;;;;;4914834;29;20067;-75
2022/04/27 10:54:03;;;;;;;5.65;0.98;;;26.60;84.90;;;;;;4910865;29;20067;-74
2022/04/27 10:56:29;;;;;;;10.52;1.45;;;27.90;84.70;;;;;;4913237;29;20032;-74
2022/04/27 10:58:55;;;;;;;3.22;1.13;;;28.30;82.10;;;;;;4901409;29;20033;-76
2022/04/27 11:01:29;;;;;;;2.33;1.15;;;28.30;81.00;;;;;;4910622;29;20036;-74
2022/04/27 11:04:12;;;;;;;1.08;1.08;;;28.20;82.10;;;;;;4909625;29;20064;-76
2022/04/27 11:07:03;;;;;;;1.83;1.55;;;28.20;81.20;;;;;;4899439;29;20028;-75
2022/04/27 11:09:48;;;;;;;3.67;1.17;;;27.80;81.90;;;;;;4899831;29;20032;-74
2022/04/27 11:12:14;;;;;;;1.08;0.80;;;27.90;82.70;;;;;;4899611;29;20029;-74
2022/04/27 11:14:41;;;;;;;1.40;1.13;;;27.20;83.30;;;;;;4904148;29;20025;-74
2022/04/27 11:17:06;;;;;;;2.97;0.90;;;26.50;82.80;;;;;;4906065;29;20037;-75
2022/04/27 11:19:38;;;;;;;0.73;0.73;;;26.20;84.50;;;;;;4895832;29;20503;-75
2022/04/27 11:22:15;;;;;;;1.50;0.70;;;25.70;85.10;;;;;;4922017;29;20039;-74
2022/04/27 11:24:42;;;;;;;1.30;0.93;;;25.70;86.20;;;;;;4901785;29;20476;-74
2022/04/27 11:27:08;;;;;;;0.85;0.77;;;26.00;84.90;;;;;;4900731;29;20063;-74
2022/04/27 11:29:35;;;;;;;1.52;1.05;;;26.60;85.00;;;;;;4902323;29;20488;-76
2022/04/27 11:32:07;;;;;;;2.55;1.08;;;27.40;83.50;;;;;;4903451;29;20071;-75
2022/04/27 11:34:33;;;;;;;6.07;1.38;;;28.00;81.70;;;;;;4895686;29;20047;-74
2022/04/27 11:37:16;;;;;;;1.40;0.88;;;27.90;81.00;;;;;;4893681;29;20115;-74
2022/04/27 11:39:41;;;;;;;2.13;1.00;;;27.30;83.00;;;;;;4894118;29;20036;-74
2022/04/27 11:42:10;;;;;;;1.20;0.90;;;26.40;83.80;;;;;;4893999;29;20028;-76
2022/04/27 11:44:35;;;;;;;1.65;1.23;;;25.50;85.40;;;;;;4916655;29;20123;-73
2022/04/27 11:47:02;;;;;;;1.33;1.00;;;24.80;86.30;;;;;;4902430;29;20572;-74
2022/04/27 11:49:28;;;;;;;1.42;0.95;;;24.10;87.10;;;;;;4897016;29;20025;-73
2022/04/27 11:51:55;;;;;;;1.27;1.20;;;23.50;88.40;;;;;;4910835;29;20028;-73
2022/04/27 11:54:27;;;;;;;0.73;0.73;;;23.60;90.40;;;;;;4909676;29;20031;-73
2022/04/27 11:56:54;;;;;;;;;;;24.20;90.00;;;;;;4900488;29;20017;-76
2022/04/27 11:59:19;;;;;;;2.15;0.88;;;24.60;89.00;;;;;;4904161;29;20426;-73
2022/04/27 12:01:54;;;;;;;1.17;1.08;;;24.80;88.90;;;;;;4909848;29;20159;-76
2022/04/27 12:04:20;;;;;;;4.95;1.02;;;24.30;88.80;;;;;;4897125;29;20029;-73
2022/04/27 12:06:46;;;;;;;2.22;0.90;;;23.60;89.70;;;;;;4910627;29;20107;-73
2022/04/27 12:09:18;;;;;;;0.80;0.77;;;23.10;90.00;;;;;;4930973;29;20161;-73
2022/04/27 12:11:45;;;;;;;0.35;0.30;;;23.20;90.30;;;;;;4918528;29;20051;-74
2022/04/27 12:14:12;;;;;;;1.48;0.60;;;23.30;90.90;;;;;;4895027;29;20107;-77
2022/04/27 12:16:42;;;;;;;7.38;0.80;;;23.60;90.30;;;;;;4905844;29;20103;-76
2022/04/27 12:19:08;;;;;;;0.95;0.68;;;24.20;90.50;;;;;;4904686;29;20016;-74
2022/04/27 12:21:34;;;;;;;2.25;0.85;;;24.30;89.50;;;;;;4899215;29;20443;-79
2022/04/27 12:24:17;;;;;;;2.22;0.85;;;24.20;89.90;;;;;;4907277;29;20028;-77
2022/04/27 12:26:43;;;;;;;0.40;0.40;;;24.20;89.50;;;;;;4919039;29;20083;-74
2022/04/27 12:29:08;;;;;;;2.22;1.13;;;24.40;90.20;;;;;;4930435;29;20490;-75
2022/04/27 12:31:37;;;;;;;1.02;0.77;;;24.60;90.00;;;;;;4932898;29;20019;-74
2022/04/27 12:37:29;;;;;;;1.15;0.50;;;24.40;90.00;;;;;;4907779;29;20093;-76
2022/04/27 12:39:38;;;;;;;0.50;0.50;;;25.20;89.00;;;;;;4902132;29;20140;-74
2022/04/27 12:42:09;;;;;;;0.98;0.82;;;25.10;88.70;;;;;;4930276;29;20028;-74
2022/04/27 12:44:39;;;;;;;1.58;0.68;;;25.40;89.50;;;;;;4907337;29;20153;-75
2022/04/27 12:47:13;;;;;;;0.70;0.50;;;25.10;89.00;;;;;;4919474;29;20039;-77
2022/04/27 12:49:40;;;;;;;3.20;0.85;;;25.10;88.80;;;;;;4915034;29;20035;-75
2022/04/27 12:52:23;;;;;;;2.08;0.57;;;24.80;89.10;;;;;;4916929;29;20032;-76
2022/04/27 12:55:00;;;;;;;0.98;0.50;;;24.40;89.60;;;;;;4930721;29;20036;-75
2022/04/27 12:57:25;;;;;;;1.30;0.43;;;24.30;90.30;;;;;;4924073;29;20123;-75
2022/04/27 12:59:56;;;;;;;0.77;0.77;;;24.40;90.70;;;;;;4932748;29;20128;-75
2022/04/27 13:02:22;;;;;;;0.70;0.70;;;24.60;90.10;;;;;;4935325;29;20028;-75
2022/04/27 13:04:48;;;;;;;1.17;0.85;;;24.80;89.80;;;;;;4920631;29;20100;-75
2022/04/27 13:07:14;;;;;;;0.50;0.45;;;24.80;88.80;;;;;;4919625;29;20020;-76
2022/04/27 13:12:31;;;;;;;0.50;0.50;;;24.50;89.60;;;;;;4898924;29;20035;-75
2022/04/27 13:14:58;;;;;;;0.98;0.57;;;24.20;89.70;;;;;;4896520;29;20436;-77
2022/04/27 13:17:23;;;;;;;0.57;0.55;;;24.50;90.20;;;;;;4907289;29;20036;-75